createdAt,value
2022-08-16T00:02:44.301Z,98738.41
2022-08-16T00:05:49.016Z,98725.75
2022-08-16T00:08:52.446Z,98728.78
2022-08-16T00:11:55.363Z,98732.91
2022-08-16T00:15:00.020Z,98727.44
2022-08-16T00:18:02.728Z,98715.06
2022-08-16T00:21:09.104Z,98722.81
2022-08-16T00:24:12.314Z,98732.25
2022-08-16T00:27:15.088Z,98739.44
2022-08-16T00:30:25.969Z,98745.53
2022-08-16T00:33:31.146Z,98732.09
2022-08-16T00:36:35.005Z,98728.31
2022-08-16T00:39:37.115Z,98733.56
2022-08-16T00:42:41.444Z,98744.56
2022-08-16T00:46:00.460Z,98737.66
2022-08-16T00:49:17.292Z,98743.16
2022-08-16T00:52:29.472Z,98731.94
2022-08-16T00:55:37.961Z,98739.31
2022-08-16T00:58:44.061Z,98749.72
2022-08-16T01:01:46.130Z,98751.97
2022-08-16T01:05:04.650Z,98752.59
2022-08-16T01:08:34.874Z,98760.22
2022-08-16T01:11:37.531Z,98761.03
2022-08-16T01:15:00.355Z,98757.22
2022-08-16T01:18:05.871Z,98761.09
2022-08-16T01:21:39.888Z,98765.78
2022-08-16T01:24:53.840Z,98768.28
2022-08-16T01:28:01.428Z,98767.75
2022-08-16T01:31:08.337Z,98767.22
2022-08-16T01:34:22.657Z,98782.94
2022-08-16T01:37:27.751Z,98775.03
2022-08-16T01:40:38.122Z,98783.88
2022-08-16T01:43:42.765Z,98781.09
2022-08-16T01:46:48.300Z,98779.47
2022-08-16T01:50:43.557Z,98781.41
2022-08-16T01:53:16.072Z,98795.50
2022-08-16T01:56:36.813Z,98798.00
2022-08-16T01:59:39.856Z,98806.56
2022-08-16T02:02:52.403Z,98802.41
2022-08-16T02:05:56.202Z,98809.31
2022-08-16T02:08:59.466Z,98807.16
2022-08-16T02:12:49.559Z,98809.91
2022-08-16T02:15:37.887Z,98797.84
2022-08-16T02:18:47.113Z,98780.03
2022-08-16T02:22:07.749Z,98801.78
2022-08-16T02:25:14.848Z,98798.53
2022-08-16T02:28:19.388Z,98798.00
2022-08-16T02:31:22.402Z,98804.59
2022-08-16T02:34:44.928Z,98794.19
2022-08-16T02:37:52.289Z,98800.25
2022-08-16T02:40:57.911Z,98796.38
2022-08-16T02:44:01.801Z,98815.09
2022-08-16T02:47:04.220Z,98824.44
2022-08-16T02:50:54.530Z,98834.88
2022-08-16T02:53:29.398Z,98825.03
2022-08-16T02:56:32.959Z,98832.97
2022-08-16T02:59:41.308Z,98824.47
2022-08-16T03:02:45.354Z,98847.31
2022-08-16T03:05:52.575Z,98853.06
2022-08-16T03:08:56.874Z,98841.06
2022-08-16T03:12:03.531Z,98839.97
2022-08-16T03:15:10.743Z,98835.56
2022-08-16T03:18:34.753Z,98841.09
2022-08-16T03:21:38.805Z,98846.03
2022-08-16T03:24:44.715Z,98851.81
2022-08-16T03:27:46.862Z,98863.63
2022-08-16T03:30:52.735Z,98865.56
2022-08-16T03:33:57.870Z,98862.00
2022-08-16T03:37:00.688Z,98861.44
2022-08-16T03:40:04.802Z,98875.16
2022-08-16T03:43:20.436Z,98865.28
2022-08-16T03:46:48.427Z,98862.53
2022-08-16T03:49:51.916Z,98852.66
2022-08-16T03:53:01.284Z,98856.50
2022-08-16T03:56:19.511Z,98863.34
2022-08-16T03:59:24.393Z,98858.69
2022-08-16T04:02:31.671Z,98864.19
2022-08-16T04:05:44.183Z,98865.00
2022-08-16T04:08:48.218Z,98868.59
2022-08-16T04:11:50.158Z,98868.03
2022-08-16T04:14:54.725Z,98866.66
2022-08-16T04:18:00.871Z,98882.31
2022-08-16T04:21:06.205Z,98882.31
2022-08-16T04:24:08.269Z,98884.97
2022-08-16T04:27:11.689Z,98875.88
2022-08-16T04:30:32.115Z,98881.06
2022-08-16T04:33:37.644Z,98888.94
2022-08-16T04:36:57.469Z,98887.56
2022-08-16T04:39:59.660Z,98876.56
2022-08-16T04:43:08.187Z,98861.78
2022-08-16T04:47:00.992Z,98867.22
2022-08-16T04:49:43.801Z,98873.47
2022-08-16T04:52:51.134Z,98878.09
2022-08-16T04:55:57.883Z,98882.44
2022-08-16T04:59:01.573Z,98875.25
2022-08-16T05:02:03.700Z,98864.75
2022-08-16T05:05:30.681Z,98870.69
2022-08-16T05:08:39.619Z,98874.97
2022-08-16T05:11:57.162Z,98879.38
2022-08-16T05:15:03.066Z,98854.25
2022-08-16T05:18:15.880Z,98865.22
2022-08-16T05:21:36.020Z,98870.44
2022-08-16T05:24:43.826Z,98877.28
2022-08-16T05:27:46.500Z,98876.75
2022-08-16T05:30:52.566Z,98853.53
2022-08-16T05:34:00.687Z,98852.22
2022-08-16T05:37:02.993Z,98836.63
2022-08-16T05:40:13.190Z,98821.31
2022-08-16T05:43:16.817Z,98845.72
2022-08-16T05:46:30.446Z,98837.78
2022-08-16T05:49:43.810Z,98836.19
2022-08-16T05:52:47.478Z,98826.09
2022-08-16T05:55:50.794Z,98807.56
2022-08-16T05:58:53.853Z,98803.19
2022-08-16T06:01:55.974Z,98794.16
2022-08-16T06:05:06.405Z,98787.63
2022-08-16T06:08:32.542Z,98816.97
2022-08-16T06:11:38.247Z,98842.72
2022-08-16T06:14:45.368Z,98841.91
2022-08-16T06:17:47.498Z,98838.09
2022-08-16T06:20:57.733Z,98855.41
2022-08-16T06:24:02.967Z,98859.25
2022-08-16T06:27:25.638Z,98855.97
2022-08-16T06:30:44.125Z,98856.25
2022-08-16T06:34:56.649Z,98872.16
2022-08-16T06:38:32.428Z,98886.41
2022-08-16T06:41:39.819Z,98907.00
2022-08-16T06:44:53.665Z,98916.59
2022-08-16T06:48:11.426Z,98913.88
2022-08-16T06:51:14.815Z,98916.09
2022-08-16T06:54:17.783Z,98911.69
2022-08-16T06:57:21.783Z,98900.97
2022-08-16T07:00:25.649Z,98923.47
2022-08-16T07:03:55.154Z,98914.41
2022-08-16T07:07:03.560Z,98908.94
2022-08-16T07:10:10.213Z,98911.38
2022-08-16T07:13:19.809Z,98909.72
2022-08-16T07:16:34.906Z,98893.81
2022-08-16T07:20:03.290Z,98912.19
2022-08-16T07:23:13.362Z,98904.25
2022-08-16T07:26:27.699Z,98911.94
2022-08-16T07:29:32.948Z,98898.78
2022-08-16T07:32:35.995Z,98893.84
2022-08-16T07:35:44.216Z,98887.53
2022-08-16T07:38:49.240Z,98893.81
2022-08-16T07:41:53.085Z,98885.59
2022-08-16T07:44:55.525Z,98891.63
2022-08-16T07:47:59.991Z,98890.50
2022-08-16T07:51:16.679Z,98900.88
2022-08-16T07:54:21.481Z,98885.56
2022-08-16T07:57:58.005Z,98870.66
2022-08-16T08:01:01.936Z,98871.97
2022-08-16T08:04:07.857Z,98867.84
2022-08-16T08:07:16.958Z,98859.31
2022-08-16T08:10:29.747Z,98858.75
2022-08-16T08:13:41.688Z,98861.47
2022-08-16T08:16:47.611Z,98862.25
2022-08-16T08:19:59.571Z,98874.03
2022-08-16T08:23:02.864Z,98889.72
2022-08-16T08:26:17.484Z,98883.69
2022-08-16T08:29:23.004Z,98875.78
2022-08-16T08:32:57.572Z,98878.78
2022-08-16T08:36:07.694Z,98863.13
2022-08-16T08:39:12.665Z,98865.38
2022-08-16T08:42:26.607Z,98862.38
2022-08-16T08:45:48.415Z,98866.75
2022-08-16T08:48:59.185Z,98864.63
2022-08-16T08:52:08.142Z,98857.56
2022-08-16T08:55:14.312Z,98859.53
2022-08-16T08:58:18.097Z,98862.09
2022-08-16T09:01:42.888Z,98856.31
2022-08-16T09:04:58.685Z,98864.47
2022-08-16T09:08:05.628Z,98870.47
2022-08-16T09:11:40.649Z,98873.19
2022-08-16T09:14:51.221Z,98883.56
2022-08-16T09:17:59.113Z,98880.53
2022-08-16T09:21:04.607Z,98889.81
2022-08-16T09:24:09.961Z,98884.88
2022-08-16T09:27:17.158Z,98882.75
2022-08-16T09:30:34.592Z,98880.00
2022-08-16T09:33:39.589Z,98864.03
2022-08-16T09:36:45.990Z,98877.16
2022-08-16T09:39:50.455Z,98870.31
2022-08-16T09:42:59.369Z,98879.97
2022-08-16T09:46:04.499Z,98878.88
2022-08-16T09:49:36.904Z,98881.31
2022-08-16T09:52:44.102Z,98879.34
2022-08-16T09:55:53.746Z,98877.22
2022-08-16T09:59:03.872Z,98879.50
2022-08-16T10:02:26.607Z,98882.91
2022-08-16T10:05:29.815Z,98876.06
2022-08-16T10:09:04.170Z,98877.47
2022-08-16T10:12:17.940Z,98879.16
2022-08-16T10:15:21.941Z,98876.09
2022-08-16T10:18:56.401Z,98887.16
2022-08-16T10:21:46.648Z,98910.59
2022-08-16T10:24:59.913Z,98910.94
2022-08-16T10:28:27.840Z,98915.06
2022-08-16T10:31:44.264Z,98917.03
2022-08-16T10:34:48.393Z,98909.06
2022-08-16T10:37:54.328Z,98918.69
2022-08-16T10:40:56.320Z,98915.38
2022-08-16T10:43:59.313Z,98903.28
2022-08-16T10:47:02.349Z,98912.88
2022-08-16T10:50:07.341Z,98901.25
2022-08-16T10:53:21.869Z,98895.72
2022-08-16T10:56:49.479Z,98885.28
2022-08-16T10:59:53.248Z,98895.38
2022-08-16T11:03:02.513Z,98898.94
2022-08-16T11:06:11.981Z,98892.88
2022-08-16T11:09:25.353Z,98893.94
2022-08-16T11:12:28.613Z,98904.38
2022-08-16T11:15:31.489Z,98902.69
2022-08-16T11:19:04.530Z,98905.63
2022-08-16T11:22:38.805Z,98912.16
2022-08-16T11:32:12.756Z,98894.91
2022-08-16T11:38:56.999Z,98896.88
2022-08-16T11:41:59.953Z,98896.31
2022-08-16T11:45:01.911Z,98899.44
2022-08-16T11:48:05.682Z,98916.34
2022-08-16T11:51:07.688Z,98918.31
2022-08-16T11:54:20.395Z,98916.97
2022-08-16T11:57:23.891Z,98912.03
2022-08-16T12:00:34.240Z,98916.69
2022-08-16T12:03:50.437Z,98905.97
2022-08-16T12:06:54.510Z,98889.78
2022-08-16T12:09:57.167Z,98897.22
2022-08-16T12:13:02.853Z,98904.91
2022-08-16T12:16:08.069Z,98900.81
2022-08-16T12:19:13.785Z,98901.88
2022-08-16T12:22:19.245Z,98903.25
2022-08-16T12:25:25.772Z,98907.69
2022-08-16T12:28:54.290Z,98919.28
2022-08-16T12:32:01.317Z,98906.13
2022-08-16T12:35:19.467Z,98907.25
2022-08-16T12:38:41.174Z,98894.63
2022-08-16T12:41:46.409Z,98861.63
2022-08-16T12:44:50.398Z,98856.13
2022-08-16T12:48:33.288Z,98854.22
2022-08-16T12:51:59.439Z,98849.81
2022-08-16T12:54:59.407Z,98849.81
2022-08-16T12:58:01.472Z,98860.25
2022-08-16T13:01:04.942Z,98861.88
2022-08-16T13:04:20.558Z,98867.09
2022-08-16T13:07:27.122Z,98864.66
2022-08-16T13:10:37.249Z,98874.03
2022-08-16T13:13:39.599Z,98865.88
2022-08-16T13:16:42.430Z,98862.34
2022-08-16T13:23:11.599Z,98866.19
2022-08-16T13:26:18.192Z,98863.44
2022-08-16T13:29:20.056Z,98856.88
2022-08-16T13:32:40.012Z,98851.91
2022-08-16T13:35:45.059Z,98859.06
2022-08-16T13:38:49.338Z,98868.41
2022-08-16T13:41:53.794Z,98872.78
2022-08-16T13:44:58.593Z,98879.09
2022-08-16T13:48:02.375Z,98880.19
2022-08-16T13:51:07.562Z,98878.00
2022-08-16T13:54:09.710Z,98882.66
2022-08-16T13:57:11.982Z,98884.81
2022-08-16T14:00:19.578Z,98881.47
2022-08-16T14:03:23.997Z,98891.06
2022-08-16T14:06:26.255Z,98898.44
2022-08-16T14:09:32.014Z,98892.41
2022-08-16T14:12:35.803Z,98883.63
2022-08-16T14:15:38.123Z,98880.09
2022-08-16T14:18:44.013Z,98882.28
2022-08-16T14:21:56.743Z,98888.34
2022-08-16T14:25:16.284Z,98886.13
2022-08-16T14:28:20.560Z,98881.16
2022-08-16T14:31:27.883Z,98885.53
2022-08-16T14:34:30.366Z,98881.09
2022-08-16T14:37:35.754Z,98871.47
2022-08-16T14:40:37.869Z,98885.22
2022-08-16T14:43:40.184Z,98881.34
2022-08-16T14:46:42.560Z,98879.47
2022-08-16T14:49:44.519Z,98886.91
2022-08-16T14:52:56.699Z,98880.28
2022-08-16T14:55:59.621Z,98880.28
2022-08-16T14:59:01.541Z,98886.88
2022-08-16T15:02:06.316Z,98885.78
2022-08-16T15:05:12.575Z,98879.75
2022-08-16T15:08:20.285Z,98886.59
2022-08-16T15:11:22.428Z,98889.88
2022-08-16T15:14:24.193Z,98883.03
2022-08-16T15:17:27.688Z,98881.34
2022-08-16T15:20:36.784Z,98884.09
2022-08-16T15:23:41.301Z,98890.19
2022-08-16T15:26:45.150Z,98886.38
2022-08-16T15:29:49.028Z,98891.59
2022-08-16T15:33:03.026Z,98891.91
2022-08-16T15:36:07.797Z,98891.06
2022-08-16T15:39:30.417Z,98883.69
2022-08-16T15:42:31.868Z,98879.59
2022-08-16T15:45:56.676Z,98885.09
2022-08-16T15:48:58.569Z,98882.09
2022-08-16T15:52:01.426Z,98880.44
2022-08-16T15:55:12.899Z,98874.41
2022-08-16T15:58:35.612Z,98879.91
2022-08-16T16:01:40.651Z,98879.66
2022-08-16T16:04:42.586Z,98881.56
2022-08-16T16:07:55.493Z,98875.25
2022-08-16T16:11:03.153Z,98881.59
2022-08-16T16:14:06.267Z,98878.31
2022-08-16T16:17:13.426Z,98881.91
2022-08-16T16:20:20.116Z,98879.44
2022-08-16T16:23:27.435Z,98880.00
2022-08-16T16:26:31.485Z,98877.28
2022-08-16T16:29:37.191Z,98879.50
2022-08-16T16:32:47.472Z,98870.19
2022-08-16T16:35:55.458Z,98883.91
2022-08-16T16:39:04.468Z,98881.09
2022-08-16T16:42:06.853Z,98895.63
2022-08-16T16:45:33.315Z,98893.69
2022-08-16T16:48:37.436Z,98901.91
2022-08-16T16:51:41.229Z,98898.91
2022-08-16T16:54:49.233Z,98893.94
2022-08-16T16:58:17.986Z,98900.53
2022-08-16T17:01:56.592Z,98900.19
2022-08-16T17:04:55.684Z,98897.13
2022-08-16T17:08:02.028Z,98894.91
2022-08-16T17:11:04.225Z,98900.69
2022-08-16T17:14:27.537Z,98906.72
2022-08-16T17:17:36.203Z,98903.97
2022-08-16T17:20:55.964Z,98914.41
2022-08-16T17:24:00.444Z,98910.00
2022-08-16T17:27:04.048Z,98908.88
2022-08-16T17:30:16.097Z,98911.13
2022-08-16T17:33:21.833Z,98909.47
2022-08-16T17:36:36.631Z,98910.88
2022-08-16T17:39:59.258Z,98908.97
2022-08-16T17:43:02.284Z,98899.41
2022-08-16T17:46:06.815Z,98897.25
2022-08-16T17:49:28.777Z,98906.88
2022-08-16T17:52:31.825Z,98905.56
2022-08-16T17:55:39.601Z,98901.69
2022-08-16T17:58:42.304Z,98901.66
2022-08-16T18:01:44.656Z,98908.00
2022-08-16T18:04:49.824Z,98898.66
2022-08-16T18:07:52.811Z,98894.25
2022-08-16T18:10:58.634Z,98896.75
2022-08-16T18:14:06.419Z,98889.63
2022-08-16T18:17:08.629Z,98892.91
2022-08-16T18:20:32.584Z,98889.06
2022-08-16T18:23:35.240Z,98884.66
2022-08-16T18:26:40.427Z,98872.31
2022-08-16T18:29:43.661Z,98874.00
2022-08-16T18:32:50.469Z,98865.47
2022-08-16T18:35:57.573Z,98850.94
2022-08-16T18:38:59.975Z,98848.22
2022-08-16T18:42:14.656Z,98849.34
2022-08-16T18:45:18.266Z,98846.03
2022-08-16T18:48:21.942Z,98843.28
2022-08-16T18:51:25.404Z,98851.56
2022-08-16T18:54:29.835Z,98856.78
2022-08-16T18:57:31.914Z,98855.69
2022-08-16T19:00:45.850Z,98857.59
2022-08-16T19:03:59.286Z,98855.66
2022-08-16T19:07:01.180Z,98847.72
2022-08-16T19:10:06.532Z,98853.22
2022-08-16T19:13:15.208Z,98849.63
2022-08-16T19:16:17.303Z,98843.88
2022-08-16T19:19:23.925Z,98849.09
2022-08-16T19:22:52.367Z,98838.69
2022-08-16T19:26:00.132Z,98834.56
2022-08-16T19:29:03.342Z,98833.19
2022-08-16T19:32:28.900Z,98827.16
2022-08-16T19:35:30.864Z,98817.56
2022-08-16T19:38:33.341Z,98810.72
2022-08-16T19:41:38.408Z,98804.13
2022-08-16T19:44:41.629Z,98797.81
2022-08-16T19:47:45.443Z,98804.91
2022-08-16T19:50:47.514Z,98803.84
2022-08-16T19:53:53.092Z,98801.34
2022-08-16T19:56:57.126Z,98801.38
2022-08-16T19:59:59.496Z,98809.03
2022-08-16T20:03:01.766Z,98805.75
2022-08-16T20:06:04.135Z,98803.28
2022-08-16T20:09:06.759Z,98798.59
2022-08-16T20:12:21.101Z,98801.91
2022-08-16T20:15:29.991Z,98802.72
2022-08-16T20:18:33.216Z,98800.81
2022-08-16T20:21:48.304Z,98803.25
2022-08-16T20:24:51.247Z,98798.84
2022-08-16T20:28:02.690Z,98800.50
2022-08-16T20:31:04.599Z,98795.81
2022-08-16T20:34:06.934Z,98807.31
2022-08-16T20:37:24.178Z,98810.28
2022-08-16T20:40:33.832Z,98811.56
2022-08-16T20:43:43.713Z,98812.31
2022-08-16T20:46:55.682Z,98809.03
2022-08-16T20:49:57.695Z,98811.47
2022-08-16T20:53:00.274Z,98798.59
2022-08-16T20:56:02.749Z,98801.66
2022-08-16T20:59:04.677Z,98798.09
2022-08-16T21:02:16.333Z,98797.31
2022-08-16T21:05:31.752Z,98793.19
2022-08-16T21:08:51.731Z,98798.16
2022-08-16T21:11:57.176Z,98796.50
2022-08-16T21:15:07.495Z,98786.66
2022-08-16T21:18:09.891Z,98791.84
2022-08-16T21:21:12.710Z,98782.53
2022-08-16T21:24:15.409Z,98787.72
2022-08-16T21:27:18.685Z,98786.06
2022-08-16T21:30:27.976Z,98783.34
2022-08-16T21:33:34.218Z,98792.13
2022-08-16T21:36:36.733Z,98782.00
2022-08-16T21:39:39.334Z,98776.53
2022-08-16T21:42:42.872Z,98774.59
2022-08-16T21:45:45.431Z,98779.53
2022-08-16T21:48:47.302Z,98771.56
2022-08-16T21:51:49.249Z,98768.84
2022-08-16T21:54:56.402Z,98765.59
2022-08-16T21:57:58.647Z,98765.84
2022-08-16T22:01:04.231Z,98774.34
2022-08-16T22:04:37.482Z,98772.28
2022-08-16T22:07:28.284Z,98760.03
2022-08-16T22:11:05.756Z,98769.75
2022-08-16T22:13:58.995Z,98762.22
2022-08-16T22:17:03.952Z,98755.28
2022-08-16T22:20:07.696Z,98757.41
2022-08-16T22:23:14.133Z,98744.19
2022-08-16T22:26:16.343Z,98745.22
2022-08-16T22:29:18.140Z,98746.22
2022-08-16T22:32:20.102Z,98746.75
2022-08-16T22:35:22.060Z,98747.25
2022-08-16T22:38:54.551Z,98750.50
2022-08-16T22:41:52.125Z,98747.72
2022-08-16T22:44:54.135Z,98745.25
2022-08-16T22:47:56.245Z,98748.50
2022-08-16T22:50:58.145Z,98750.09
2022-08-16T22:54:00.364Z,98754.50
2022-08-16T22:57:22.830Z,98747.63
2022-08-16T23:00:27.501Z,98753.34
2022-08-16T23:03:29.422Z,98746.50
2022-08-16T23:06:31.340Z,98739.66
2022-08-16T23:09:33.363Z,98744.28
2022-08-16T23:12:50.206Z,98739.09
2022-08-16T23:16:11.110Z,98740.16
2022-08-16T23:19:15.423Z,98729.69
2022-08-16T23:22:17.297Z,98731.56
2022-08-16T23:25:24.216Z,98733.16
2022-08-16T23:28:31.202Z,98732.25
2022-08-16T23:31:33.293Z,98736.25
2022-08-16T23:34:35.104Z,98736.63
2022-08-16T23:37:37.187Z,98725.03
2022-08-16T23:40:39.856Z,98713.47
2022-08-16T23:43:44.172Z,98712.84
2022-08-16T23:46:47.872Z,98699.59
2022-08-16T23:50:00.891Z,98708.28
2022-08-16T23:53:06.631Z,98712.00
2022-08-16T23:56:21.582Z,98720.69
2022-08-16T23:59:23.500Z,98715.06
